createdAt,value
2022-10-10T00:01:21.358Z,9.92
2022-10-10T00:03:49.043Z,10.10
2022-10-10T00:06:16.553Z,10.00
2022-10-10T00:08:43.909Z,9.91
2022-10-10T00:11:11.772Z,10.10
2022-10-10T00:13:38.773Z,10.24
2022-10-10T00:16:06.235Z,10.04
2022-10-10T00:18:32.816Z,10.15
2022-10-10T00:20:59.776Z,10.21
2022-10-10T00:23:26.444Z,10.14
2022-10-10T00:25:53.252Z,10.32
2022-10-10T00:28:20.067Z,10.20
2022-10-10T00:30:49.157Z,10.20
2022-10-10T00:33:15.788Z,10.34
2022-10-10T00:35:42.587Z,10.19
2022-10-10T00:38:10.299Z,10.30
2022-10-10T00:40:46.252Z,10.24
2022-10-10T00:43:16.556Z,10.17
2022-10-10T00:45:45.123Z,10.26
2022-10-10T00:48:31.623Z,10.46
2022-10-10T00:51:03.351Z,10.29
2022-10-10T00:53:44.489Z,10.41
2022-10-10T00:56:15.265Z,10.36
2022-10-10T00:58:44.565Z,10.38
2022-10-10T01:01:11.385Z,10.46
2022-10-10T01:03:38.235Z,10.32
2022-10-10T01:06:06.472Z,10.46
2022-10-10T01:08:33.683Z,10.42
2022-10-10T01:11:23.751Z,10.36
2022-10-10T01:14:07.249Z,10.53
2022-10-10T01:16:54.189Z,10.43
2022-10-10T01:19:42.592Z,10.57
2022-10-10T01:22:36.678Z,10.48
2022-10-10T01:25:21.860Z,10.56
2022-10-10T01:27:56.603Z,10.51
2022-10-10T01:30:26.799Z,10.43
2022-10-10T01:33:16.341Z,10.58
2022-10-10T01:35:53.039Z,10.42
2022-10-10T01:38:23.788Z,10.57
2022-10-10T01:41:03.208Z,10.52
2022-10-10T01:43:32.444Z,10.46
2022-10-10T01:45:59.132Z,10.62
2022-10-10T01:48:31.933Z,10.46
2022-10-10T01:51:31.869Z,10.60
2022-10-10T01:54:41.057Z,10.57
2022-10-10T01:57:38.564Z,10.65
2022-10-10T02:00:09.996Z,10.69
2022-10-10T02:02:50.168Z,10.65
2022-10-10T02:05:38.731Z,10.80
2022-10-10T02:08:09.037Z,10.67
2022-10-10T02:10:45.564Z,10.82
2022-10-10T02:13:14.030Z,10.78
2022-10-10T02:15:47.880Z,10.81
2022-10-10T02:18:19.077Z,10.92
2022-10-10T02:20:46.335Z,10.78
2022-10-10T02:23:16.756Z,10.93
2022-10-10T02:25:51.049Z,10.91
2022-10-10T02:28:17.768Z,10.85
2022-10-10T02:30:47.292Z,11.03
2022-10-10T02:33:23.691Z,10.88
2022-10-10T02:35:53.028Z,10.95
2022-10-10T02:38:20.624Z,11.06
2022-10-10T02:40:51.449Z,10.93
2022-10-10T02:43:19.276Z,11.07
2022-10-10T02:45:46.395Z,11.03
2022-10-10T02:48:12.979Z,11.00
2022-10-10T02:50:39.579Z,11.16
2022-10-10T02:53:06.328Z,11.09
2022-10-10T02:55:32.919Z,11.16
2022-10-10T02:57:59.944Z,11.14
2022-10-10T03:00:26.782Z,11.04
2022-10-10T03:02:53.662Z,11.23
2022-10-10T03:05:21.329Z,11.09
2022-10-10T03:07:48.615Z,11.03
2022-10-10T03:10:15.262Z,11.18
2022-10-10T03:12:44.039Z,10.99
2022-10-10T03:15:12.110Z,11.07
2022-10-10T03:17:39.667Z,11.05
2022-10-10T03:20:07.304Z,10.92
2022-10-10T03:22:34.107Z,11.09
2022-10-10T03:25:00.720Z,11.01
2022-10-10T03:27:29.336Z,11.00
2022-10-10T03:29:55.967Z,11.13
2022-10-10T03:32:24.713Z,10.98
2022-10-10T03:34:51.368Z,11.13
2022-10-10T03:37:18.323Z,11.08
2022-10-10T03:39:44.959Z,11.11
2022-10-10T03:42:11.572Z,11.21
2022-10-10T03:44:39.990Z,11.10
2022-10-10T03:47:06.723Z,11.21
2022-10-10T03:49:33.327Z,11.11
2022-10-10T03:52:01.523Z,11.15
2022-10-10T03:54:28.184Z,11.20
2022-10-10T03:56:54.796Z,11.10
2022-10-10T03:59:21.883Z,11.22
2022-10-10T04:01:48.421Z,11.03
2022-10-10T04:04:15.196Z,11.00
2022-10-10T04:06:44.748Z,11.00
2022-10-10T04:09:11.358Z,10.89
2022-10-10T04:11:38.695Z,11.03
2022-10-10T04:14:05.243Z,10.92
2022-10-10T04:16:31.866Z,10.94
2022-10-10T04:18:58.602Z,10.87
2022-10-10T04:21:25.268Z,10.73
2022-10-10T04:23:51.896Z,10.89
2022-10-10T04:26:18.485Z,10.66
2022-10-10T04:28:45.638Z,10.71
2022-10-10T04:31:12.591Z,10.69
2022-10-10T04:33:39.191Z,10.64
2022-10-10T04:36:06.019Z,10.77
2022-10-10T04:38:32.759Z,10.57
2022-10-10T04:40:59.415Z,10.66
2022-10-10T04:43:26.083Z,10.55
2022-10-10T04:45:52.814Z,10.51
2022-10-10T04:48:19.428Z,10.60
2022-10-10T04:50:54.898Z,10.43
2022-10-10T04:53:21.711Z,10.58
2022-10-10T04:55:48.273Z,10.48
2022-10-10T04:58:15.386Z,10.48
2022-10-10T05:00:42.296Z,10.58
2022-10-10T05:03:10.337Z,10.44
2022-10-10T05:05:37.104Z,10.60
2022-10-10T05:08:05.883Z,10.49
2022-10-10T05:10:43.633Z,10.49
2022-10-10T05:13:13.076Z,10.47
2022-10-10T05:15:40.068Z,10.43
2022-10-10T05:18:07.053Z,10.55
2022-10-10T05:20:34.487Z,10.35
2022-10-10T05:23:01.087Z,10.44
2022-10-10T05:25:27.808Z,10.46
2022-10-10T05:27:54.687Z,10.43
2022-10-10T05:30:21.532Z,10.56
2022-10-10T05:32:50.389Z,10.39
2022-10-10T05:35:17.724Z,10.49
2022-10-10T05:37:44.330Z,10.47
2022-10-10T05:40:11.541Z,10.45
2022-10-10T05:42:38.121Z,10.58
2022-10-10T05:45:07.581Z,10.44
2022-10-10T05:47:36.083Z,10.53
2022-10-10T05:50:02.736Z,10.53
2022-10-10T05:52:29.408Z,10.46
2022-10-10T05:54:56.004Z,10.63
2022-10-10T05:57:22.889Z,10.53
2022-10-10T05:59:51.472Z,10.49
2022-10-10T06:02:20.214Z,10.57
2022-10-10T06:04:46.904Z,10.45
2022-10-10T06:07:14.836Z,10.60
2022-10-10T06:09:41.393Z,10.57
2022-10-10T06:12:08.141Z,10.50
2022-10-10T06:14:34.750Z,10.68
2022-10-10T06:17:01.429Z,10.57
2022-10-10T06:19:27.977Z,10.56
2022-10-10T06:21:54.546Z,10.66
2022-10-10T06:24:21.369Z,10.49
2022-10-10T06:26:50.118Z,10.64
2022-10-10T06:29:16.688Z,10.66
2022-10-10T06:31:43.306Z,10.57
2022-10-10T06:34:09.891Z,10.72
2022-10-10T06:36:36.481Z,10.76
2022-10-10T06:39:03.353Z,10.59
2022-10-10T06:41:30.277Z,10.75
2022-10-10T06:43:57.107Z,10.85
2022-10-10T06:46:23.707Z,10.67
2022-10-10T06:48:50.411Z,10.73
2022-10-10T06:51:17.964Z,10.84
2022-10-10T06:53:45.872Z,10.79
2022-10-10T06:56:17.887Z,10.57
2022-10-10T06:58:46.745Z,10.70
2022-10-10T07:01:13.505Z,10.82
2022-10-10T07:03:40.155Z,10.69
2022-10-10T07:06:09.577Z,10.64
2022-10-10T07:08:36.636Z,10.76
2022-10-10T07:11:03.491Z,10.83
2022-10-10T07:13:32.237Z,10.62
2022-10-10T07:15:59.296Z,10.72
2022-10-10T07:18:25.980Z,10.85
2022-10-10T07:20:59.969Z,10.77
2022-10-10T07:23:27.839Z,10.75
2022-10-10T07:26:22.434Z,10.85
2022-10-10T07:28:49.583Z,10.78
2022-10-10T07:31:16.215Z,10.64
2022-10-10T07:33:50.520Z,10.81
2022-10-10T07:36:18.555Z,10.92
2022-10-10T07:38:45.242Z,10.77
2022-10-10T07:41:13.477Z,10.80
2022-10-10T07:43:40.256Z,10.95
2022-10-10T07:46:14.129Z,11.00
2022-10-10T07:48:40.741Z,10.88
2022-10-10T07:51:07.868Z,10.89
2022-10-10T07:53:34.604Z,11.01
2022-10-10T07:56:04.508Z,11.10
2022-10-10T07:58:31.069Z,10.94
2022-10-10T08:01:09.730Z,11.07
2022-10-10T08:03:37.606Z,11.24
2022-10-10T08:06:10.707Z,11.25
2022-10-10T08:08:44.916Z,11.09
2022-10-10T08:11:17.623Z,11.28
2022-10-10T08:13:46.784Z,11.42
2022-10-10T08:16:15.185Z,11.33
2022-10-10T08:18:42.060Z,11.21
2022-10-10T08:21:11.019Z,11.43
2022-10-10T08:23:39.823Z,11.53
2022-10-10T08:26:08.505Z,11.46
2022-10-10T08:28:38.449Z,11.35
2022-10-10T08:31:13.290Z,11.51
2022-10-10T08:33:41.631Z,11.39
2022-10-10T08:36:11.057Z,11.47
2022-10-10T08:38:38.122Z,11.66
2022-10-10T08:41:11.888Z,11.50
2022-10-10T08:43:50.128Z,11.65
2022-10-10T08:46:35.328Z,11.83
2022-10-10T08:49:14.294Z,11.76
2022-10-10T08:51:45.302Z,11.77
2022-10-10T08:54:14.988Z,11.84
2022-10-10T08:56:42.308Z,11.63
2022-10-10T08:59:21.023Z,11.68
2022-10-10T09:02:18.720Z,11.85
2022-10-10T09:04:37.816Z,11.81
2022-10-10T09:07:26.164Z,11.88
2022-10-10T09:10:05.225Z,11.93
2022-10-10T09:12:46.224Z,11.82
2022-10-10T09:15:29.359Z,11.81
2022-10-10T09:18:14.632Z,11.98
2022-10-10T09:20:48.429Z,11.88
2022-10-10T09:23:17.985Z,11.88
2022-10-10T09:26:12.762Z,11.99
2022-10-10T09:28:42.498Z,11.75
2022-10-10T09:31:17.702Z,11.81
2022-10-10T09:33:53.176Z,11.90
2022-10-10T09:36:25.933Z,11.72
2022-10-10T09:39:12.565Z,11.86
2022-10-10T09:41:54.087Z,11.80
2022-10-10T09:44:22.427Z,11.70
2022-10-10T09:46:49.205Z,11.85
2022-10-10T09:49:19.650Z,11.96
2022-10-10T09:51:48.693Z,11.85
2022-10-10T09:54:19.114Z,12.00
2022-10-10T09:56:52.001Z,12.05
2022-10-10T09:59:42.841Z,11.93
2022-10-10T10:02:24.250Z,12.18
2022-10-10T10:04:55.564Z,12.31
2022-10-10T10:07:33.075Z,12.24
2022-10-10T10:10:02.366Z,12.28
2022-10-10T10:12:38.160Z,12.48
2022-10-10T10:15:16.692Z,12.52
2022-10-10T10:17:43.470Z,12.28
2022-10-10T10:20:35.919Z,12.39
2022-10-10T10:23:02.582Z,12.46
2022-10-10T10:25:36.180Z,12.33
2022-10-10T10:28:11.977Z,12.50
2022-10-10T10:30:40.559Z,12.67
2022-10-10T10:33:20.725Z,12.42
2022-10-10T10:35:53.885Z,12.42
2022-10-10T10:38:20.380Z,12.52
2022-10-10T10:41:10.302Z,12.54
2022-10-10T10:43:55.050Z,12.57
2022-10-10T10:46:39.328Z,12.70
2022-10-10T10:49:11.977Z,12.38
2022-10-10T10:52:07.540Z,12.47
2022-10-10T10:55:02.289Z,12.46
2022-10-10T10:57:40.907Z,12.22
2022-10-10T11:01:22.308Z,12.26
2022-10-10T11:05:20.346Z,12.36
2022-10-10T11:06:32.584Z,12.15
2022-10-10T11:09:31.068Z,12.13
2022-10-10T11:12:06.137Z,12.30
2022-10-10T11:14:53.998Z,12.35
2022-10-10T11:17:37.779Z,12.19
2022-10-10T11:20:16.768Z,12.34
2022-10-10T11:22:57.484Z,12.40
2022-10-10T11:25:29.860Z,12.19
2022-10-10T11:28:03.928Z,12.25
2022-10-10T11:30:40.792Z,12.31
2022-10-10T11:33:26.676Z,12.34
2022-10-10T11:36:02.578Z,12.12
2022-10-10T11:38:29.275Z,12.14
2022-10-10T11:41:06.000Z,12.20
2022-10-10T11:43:57.684Z,12.33
2022-10-10T11:46:56.400Z,12.07
2022-10-10T11:50:03.182Z,12.03
2022-10-10T11:52:54.143Z,11.99
2022-10-10T11:55:26.772Z,12.02
2022-10-10T11:58:21.442Z,11.73
2022-10-10T12:00:57.131Z,11.79
2022-10-10T12:03:26.060Z,11.86
2022-10-10T12:06:00.944Z,11.73
2022-10-10T12:08:40.408Z,11.83
2022-10-10T12:11:17.852Z,12.05
2022-10-10T12:14:10.700Z,12.16
2022-10-10T12:16:38.322Z,11.97
2022-10-10T12:19:09.008Z,12.04
2022-10-10T12:22:02.512Z,12.21
2022-10-10T12:24:31.855Z,12.19
2022-10-10T12:26:58.452Z,11.97
2022-10-10T12:29:42.014Z,12.13
2022-10-10T12:32:16.289Z,12.25
2022-10-10T12:34:51.340Z,12.03
2022-10-10T12:37:32.112Z,12.07
2022-10-10T12:40:10.077Z,12.20
2022-10-10T12:42:50.752Z,12.17
2022-10-10T12:45:29.740Z,11.99
2022-10-10T12:48:05.556Z,12.17
2022-10-10T12:50:37.448Z,12.35
2022-10-10T12:53:18.916Z,12.43
2022-10-10T12:55:48.184Z,12.40
2022-10-10T12:58:29.294Z,12.22
2022-10-10T13:00:59.452Z,12.41
2022-10-10T13:03:35.609Z,12.54
2022-10-10T13:06:08.637Z,12.53
2022-10-10T13:08:37.563Z,12.30
2022-10-10T13:11:14.195Z,12.40
2022-10-10T13:13:51.746Z,12.49
2022-10-10T13:16:22.280Z,12.51
2022-10-10T13:18:50.238Z,12.49
2022-10-10T13:21:26.717Z,12.52
2022-10-10T13:24:03.699Z,12.37
2022-10-10T13:26:49.271Z,12.21
2022-10-10T13:29:41.975Z,12.33
2022-10-10T13:32:32.625Z,12.41
2022-10-10T13:35:02.460Z,12.38
2022-10-10T13:37:29.608Z,12.22
2022-10-10T13:39:58.527Z,12.31
2022-10-10T13:42:39.148Z,12.33
2022-10-10T13:45:34.735Z,12.41
2022-10-10T13:48:01.292Z,12.24
2022-10-10T13:50:30.635Z,12.23
2022-10-10T13:53:29.037Z,12.36
2022-10-10T13:56:30.920Z,12.37
2022-10-10T13:59:06.537Z,12.10
2022-10-10T14:01:46.469Z,12.19
2022-10-10T14:04:17.325Z,12.28
2022-10-10T14:07:01.516Z,12.08
2022-10-10T14:09:41.696Z,12.08
2022-10-10T14:12:24.607Z,12.21
2022-10-10T14:14:53.085Z,12.03
2022-10-10T14:17:20.304Z,12.06
2022-10-10T14:19:48.422Z,12.17
2022-10-10T14:22:15.507Z,12.01
2022-10-10T14:24:42.208Z,12.01
2022-10-10T14:27:16.267Z,12.13
2022-10-10T14:29:43.325Z,11.98
2022-10-10T14:32:11.475Z,11.98
2022-10-10T14:34:38.103Z,12.08
2022-10-10T14:37:04.948Z,11.88
2022-10-10T14:39:31.915Z,12.01
2022-10-10T14:42:02.131Z,11.97
2022-10-10T14:44:28.743Z,11.85
2022-10-10T14:46:57.579Z,11.97
2022-10-10T14:49:24.116Z,11.93
2022-10-10T14:51:50.777Z,11.82
2022-10-10T14:54:17.455Z,11.94
2022-10-10T14:57:08.362Z,11.89
2022-10-10T14:59:47.955Z,11.82
2022-10-10T15:02:21.107Z,11.94
2022-10-10T15:04:49.914Z,11.76
2022-10-10T15:07:17.197Z,11.84
2022-10-10T15:10:03.996Z,11.90
2022-10-10T15:12:35.547Z,11.73
2022-10-10T15:15:02.310Z,11.82
2022-10-10T15:17:30.589Z,11.87
2022-10-10T15:19:57.196Z,11.70
2022-10-10T15:22:23.954Z,11.83
2022-10-10T15:24:50.629Z,11.82
2022-10-10T15:27:17.500Z,11.68
2022-10-10T15:29:44.049Z,11.80
2022-10-10T15:32:10.659Z,11.79
2022-10-10T15:34:37.408Z,11.65
2022-10-10T15:37:04.048Z,11.78
2022-10-10T15:39:31.406Z,11.82
2022-10-10T15:41:58.070Z,11.60
2022-10-10T15:44:26.993Z,11.73
2022-10-10T15:46:53.565Z,11.73
2022-10-10T15:49:20.153Z,11.57
2022-10-10T15:51:47.535Z,11.68
2022-10-10T15:54:14.604Z,11.77
2022-10-10T15:56:41.816Z,11.58
2022-10-10T15:59:09.482Z,11.61
2022-10-10T16:01:37.004Z,11.71
2022-10-10T16:04:04.739Z,11.65
2022-10-10T16:06:33.243Z,11.48
2022-10-10T16:09:23.653Z,11.60
2022-10-10T16:11:48.782Z,11.69
2022-10-10T16:14:15.423Z,11.49
2022-10-10T16:16:42.014Z,11.54
2022-10-10T16:19:08.578Z,11.65
2022-10-10T16:21:35.603Z,11.53
2022-10-10T16:24:02.286Z,11.37
2022-10-10T16:26:33.052Z,11.53
2022-10-10T16:29:01.384Z,11.55
2022-10-10T16:31:28.685Z,11.25
2022-10-10T16:33:57.697Z,11.38
2022-10-10T16:36:26.907Z,11.48
2022-10-10T16:38:54.965Z,11.27
2022-10-10T16:41:46.039Z,11.25
2022-10-10T16:44:10.677Z,11.34
2022-10-10T16:46:37.288Z,11.13
2022-10-10T16:49:04.783Z,11.19
2022-10-10T16:51:31.599Z,11.30
2022-10-10T16:54:02.384Z,11.04
2022-10-10T16:56:32.208Z,11.08
2022-10-10T16:58:59.772Z,11.18
2022-10-10T17:01:27.200Z,11.24
2022-10-10T17:03:54.327Z,10.99
2022-10-10T17:06:24.771Z,11.05
2022-10-10T17:08:54.764Z,11.15
2022-10-10T17:11:22.776Z,10.98
2022-10-10T17:13:50.604Z,10.87
2022-10-10T17:19:09.539Z,10.92
2022-10-10T17:21:36.143Z,10.87
2022-10-10T17:24:02.904Z,10.95
2022-10-10T17:26:29.700Z,10.84
2022-10-10T17:28:58.064Z,10.79
2022-10-10T17:31:25.783Z,10.88
2022-10-10T17:33:54.289Z,10.73
2022-10-10T17:36:28.111Z,10.71
2022-10-10T17:39:00.350Z,10.83
2022-10-10T17:41:27.636Z,10.73
2022-10-10T17:43:54.980Z,10.68
2022-10-10T17:46:35.429Z,10.78
2022-10-10T17:49:05.520Z,10.67
2022-10-10T17:51:32.849Z,10.58
2022-10-10T17:54:00.845Z,10.66
2022-10-10T17:56:28.112Z,10.59
2022-10-10T17:58:55.039Z,10.45
2022-10-10T18:01:22.275Z,10.57
2022-10-10T18:03:49.168Z,10.56
2022-10-10T18:06:20.792Z,10.43
2022-10-10T18:08:51.580Z,10.53
2022-10-10T18:11:21.256Z,10.52
2022-10-10T18:13:48.149Z,10.44
2022-10-10T18:16:20.091Z,10.57
2022-10-10T18:18:51.357Z,10.48
2022-10-10T18:21:20.503Z,10.43
2022-10-10T18:23:47.573Z,10.51
2022-10-10T18:26:17.435Z,10.34
2022-10-10T18:28:44.402Z,10.42
2022-10-10T18:31:14.286Z,10.32
2022-10-10T18:33:42.274Z,10.33
2022-10-10T18:36:09.627Z,10.43
2022-10-10T18:38:36.298Z,10.35
2022-10-10T18:41:17.762Z,10.24
2022-10-10T18:43:45.046Z,10.29
2022-10-10T18:46:14.505Z,10.15
2022-10-10T18:48:42.037Z,10.25
2022-10-10T18:51:12.600Z,10.32
2022-10-10T18:53:41.604Z,10.14
2022-10-10T18:56:09.369Z,10.21
2022-10-10T18:58:37.475Z,10.21
2022-10-10T19:01:08.104Z,10.04
2022-10-10T19:03:36.663Z,10.22
2022-10-10T19:06:05.576Z,10.32
2022-10-10T19:08:33.597Z,10.30
2022-10-10T19:11:00.892Z,10.10
2022-10-10T19:13:28.340Z,10.18
2022-10-10T19:15:55.208Z,10.03
2022-10-10T19:18:22.981Z,9.96
2022-10-10T19:20:49.784Z,10.07
2022-10-10T19:23:16.487Z,9.82
2022-10-10T19:25:46.132Z,9.85
2022-10-10T19:28:12.876Z,9.93
2022-10-10T19:30:41.176Z,9.74
2022-10-10T19:33:08.075Z,9.84
2022-10-10T19:35:39.690Z,9.76
2022-10-10T19:38:07.827Z,9.64
2022-10-10T19:40:34.771Z,9.81
2022-10-10T19:43:02.096Z,9.74
2022-10-10T19:45:28.705Z,9.62
2022-10-10T19:47:55.361Z,9.78
2022-10-10T19:50:21.976Z,9.67
2022-10-10T19:52:48.528Z,9.60
2022-10-10T19:55:18.391Z,9.78
2022-10-10T19:57:44.937Z,9.58
2022-10-10T20:00:12.196Z,9.58
2022-10-10T20:02:38.782Z,9.69
2022-10-10T20:05:06.405Z,9.49
2022-10-10T20:07:33.700Z,9.48
2022-10-10T20:10:00.322Z,9.61
2022-10-10T20:12:26.963Z,9.50
2022-10-10T20:14:55.565Z,9.50
2022-10-10T20:17:22.747Z,9.60
2022-10-10T20:19:49.365Z,9.45
2022-10-10T20:22:16.040Z,9.53
2022-10-10T20:24:42.625Z,9.63
2022-10-10T20:27:11.489Z,9.70
2022-10-10T20:29:38.479Z,9.75
2022-10-10T20:32:05.360Z,9.78
2022-10-10T20:34:31.935Z,9.84
2022-10-10T20:36:59.373Z,9.86
2022-10-10T20:39:26.169Z,9.87
2022-10-10T20:41:52.892Z,9.91
2022-10-10T20:44:19.515Z,9.93
2022-10-10T20:46:46.495Z,9.95
2022-10-10T20:49:19.368Z,9.96
2022-10-10T20:51:49.705Z,10.00
2022-10-10T20:54:18.810Z,10.02
2022-10-10T20:56:46.252Z,10.07
2022-10-10T20:59:13.336Z,10.10
2022-10-10T21:01:40.022Z,10.13
2022-10-10T21:04:11.161Z,10.13
2022-10-10T21:06:39.251Z,10.12
2022-10-10T21:09:08.713Z,10.12
2022-10-10T21:11:37.749Z,10.16
2022-10-10T21:14:04.393Z,10.16
2022-10-10T21:16:34.522Z,10.14
2022-10-10T21:19:01.613Z,10.14
2022-10-10T21:21:31.000Z,10.14
2022-10-10T21:23:57.975Z,10.14
2022-10-10T21:26:26.920Z,10.18
2022-10-10T21:28:54.481Z,10.18
2022-10-10T21:31:26.881Z,10.17
2022-10-10T21:33:54.348Z,10.18
2022-10-10T21:36:23.143Z,10.19
2022-10-10T21:38:49.741Z,10.20
2022-10-10T21:41:19.417Z,10.22
2022-10-10T21:43:48.122Z,10.21
2022-10-10T21:46:24.111Z,10.22
2022-10-10T21:48:52.474Z,10.22
2022-10-10T21:51:19.777Z,10.24
2022-10-10T21:53:46.567Z,10.28
2022-10-10T21:56:14.242Z,10.28
2022-10-10T21:58:42.603Z,10.26
2022-10-10T22:01:18.105Z,10.26
2022-10-10T22:03:46.392Z,10.23
2022-10-10T22:06:16.591Z,10.22
2022-10-10T22:08:43.964Z,10.23
2022-10-10T22:11:13.579Z,10.23
2022-10-10T22:13:42.160Z,10.25
2022-10-10T22:16:09.402Z,10.25
2022-10-10T22:18:36.666Z,10.27
2022-10-10T22:21:05.443Z,10.29
2022-10-10T22:23:32.236Z,10.27
2022-10-10T22:25:58.933Z,10.29
2022-10-10T22:28:26.004Z,10.29
2022-10-10T22:30:52.648Z,10.32
2022-10-10T22:33:19.215Z,10.34
2022-10-10T22:35:45.836Z,10.33
2022-10-10T22:38:12.479Z,10.34
2022-10-10T22:40:40.984Z,10.32
2022-10-10T22:43:07.613Z,10.30
2022-10-10T22:45:34.386Z,10.27
2022-10-10T22:48:02.903Z,10.28
2022-10-10T22:50:30.245Z,10.28
2022-10-10T22:52:56.932Z,10.30
2022-10-10T22:55:23.611Z,10.26
2022-10-10T22:57:50.412Z,10.00
2022-10-10T23:00:18.088Z,9.79
2022-10-10T23:02:44.852Z,9.98
2022-10-10T23:05:12.928Z,10.10
2022-10-10T23:07:39.517Z,10.12
2022-10-10T23:10:06.723Z,10.15
2022-10-10T23:12:33.349Z,10.17
2022-10-10T23:15:00.138Z,10.21
2022-10-10T23:17:26.879Z,10.20
2022-10-10T23:19:53.467Z,10.23
2022-10-10T23:22:20.088Z,10.22
2022-10-10T23:24:47.093Z,10.27
2022-10-10T23:27:13.761Z,10.29
2022-10-10T23:29:40.357Z,10.27
2022-10-10T23:32:07.064Z,10.26
2022-10-10T23:34:33.717Z,10.23
2022-10-10T23:37:00.335Z,10.18
2022-10-10T23:39:26.896Z,10.19
2022-10-10T23:41:53.525Z,10.19
2022-10-10T23:44:20.256Z,10.19
2022-10-10T23:46:46.900Z,10.19
2022-10-10T23:49:13.486Z,10.20
2022-10-10T23:51:40.086Z,10.16
2022-10-10T23:54:06.760Z,10.08
2022-10-10T23:56:33.323Z,9.59
2022-10-10T23:58:59.992Z,9.55
